createdAt,value
2023-04-12T00:02:31.431Z,4.70
2023-04-12T00:05:05.801Z,4.70
2023-04-12T00:07:40.184Z,4.70
2023-04-12T00:10:15.084Z,4.70
2023-04-12T00:12:49.520Z,4.70
2023-04-12T00:15:23.898Z,4.70
2023-04-12T00:17:57.988Z,4.70
2023-04-12T00:20:32.321Z,4.70
2023-04-12T00:23:06.842Z,4.70
2023-04-12T00:25:41.379Z,4.70
2023-04-12T00:28:16.221Z,4.64
2023-04-12T00:30:51.081Z,4.60
2023-04-12T00:33:25.245Z,4.60
2023-04-12T00:35:59.332Z,4.58
2023-04-12T00:38:33.426Z,4.52
2023-04-12T00:41:08.857Z,4.50
2023-04-12T00:43:44.500Z,4.50
2023-04-12T00:46:19.963Z,4.40
2023-04-12T00:48:54.498Z,4.34
2023-04-12T00:51:33.816Z,4.30
2023-04-12T00:54:10.022Z,4.30
2023-04-12T00:56:45.026Z,4.30
2023-04-12T00:59:19.231Z,4.30
2023-04-12T01:01:53.848Z,4.26
2023-04-12T01:04:28.683Z,4.20
2023-04-12T01:07:21.569Z,4.20
2023-04-12T01:10:09.114Z,4.20
2023-04-12T01:13:00.252Z,4.20
2023-04-12T01:15:42.747Z,4.20
2023-04-12T01:18:24.420Z,4.12
2023-04-12T01:21:07.055Z,4.10
2023-04-12T01:24:02.251Z,4.14
2023-04-12T01:26:43.671Z,4.14
2023-04-12T01:29:21.060Z,4.18
2023-04-12T01:32:02.845Z,4.10
2023-04-12T01:34:39.379Z,4.10
2023-04-12T01:37:16.411Z,4.10
2023-04-12T01:39:51.961Z,4.10
2023-04-12T01:42:26.035Z,4.10
2023-04-12T01:45:03.389Z,4.10
2023-04-12T01:47:38.077Z,4.10
2023-04-12T01:50:27.092Z,4.04
2023-04-12T01:53:13.051Z,4.00
2023-04-12T01:55:50.135Z,4.06
2023-04-12T01:58:26.488Z,4.10
2023-04-12T02:01:03.110Z,4.10
2023-04-12T02:03:38.831Z,4.10
2023-04-12T02:06:14.878Z,4.20
2023-04-12T02:08:50.119Z,4.28
2023-04-12T02:11:24.243Z,4.32
2023-04-12T02:13:58.739Z,4.40
2023-04-12T02:16:34.831Z,4.40
2023-04-12T02:19:10.785Z,4.46
2023-04-12T02:21:48.879Z,4.48
2023-04-12T02:24:22.986Z,4.50
2023-04-12T02:26:59.343Z,4.50
2023-04-12T02:29:33.922Z,4.50
2023-04-12T02:32:08.240Z,4.44
2023-04-12T02:34:42.741Z,4.40
2023-04-12T02:37:24.405Z,4.40
2023-04-12T02:39:59.264Z,4.40
2023-04-12T02:42:33.615Z,4.40
2023-04-12T02:45:09.724Z,4.32
2023-04-12T02:47:44.024Z,4.34
2023-04-12T02:50:18.425Z,4.38
2023-04-12T02:53:00.485Z,4.40
2023-04-12T02:55:34.716Z,4.30
2023-04-12T02:58:09.708Z,4.30
2023-04-12T03:00:50.076Z,4.30
2023-04-12T03:03:28.590Z,4.20
2023-04-12T03:06:04.996Z,4.20
2023-04-12T03:08:39.886Z,4.20
2023-04-12T03:11:14.000Z,4.10
2023-04-12T03:13:48.160Z,4.10
2023-04-12T03:16:29.866Z,4.10
2023-04-12T03:19:12.275Z,4.00
2023-04-12T03:21:47.118Z,4.00
2023-04-12T03:24:21.229Z,3.90
2023-04-12T03:26:56.018Z,3.90
2023-04-12T03:29:31.849Z,3.82
2023-04-12T03:32:06.618Z,3.80
2023-04-12T03:34:41.029Z,3.80
2023-04-12T03:37:19.657Z,3.70
2023-04-12T03:39:54.702Z,3.70
2023-04-12T03:42:33.413Z,3.60
2023-04-12T03:45:27.758Z,3.50
2023-04-12T03:48:03.255Z,3.48
2023-04-12T03:50:44.512Z,3.40
2023-04-12T03:53:23.767Z,3.40
2023-04-12T03:55:58.371Z,3.40
2023-04-12T03:58:37.654Z,3.34
2023-04-12T04:01:15.042Z,3.30
2023-04-12T04:03:51.248Z,3.30
2023-04-12T04:06:34.434Z,3.30
2023-04-12T04:09:09.989Z,3.30
2023-04-12T04:11:44.679Z,3.30
2023-04-12T04:14:19.312Z,3.34
2023-04-12T04:16:53.528Z,3.40
2023-04-12T04:19:28.134Z,3.40
2023-04-12T04:22:03.511Z,3.40
2023-04-12T04:24:39.131Z,3.40
2023-04-12T04:27:15.833Z,3.40
2023-04-12T04:29:51.393Z,3.40
2023-04-12T04:32:25.821Z,3.40
2023-04-12T04:35:03.722Z,3.46
2023-04-12T04:37:47.073Z,3.50
2023-04-12T04:40:23.297Z,3.50
2023-04-12T04:42:57.947Z,3.50
2023-04-12T04:45:33.777Z,3.50
2023-04-12T04:48:09.798Z,3.60
2023-04-12T04:50:45.097Z,3.70
2023-04-12T04:53:23.135Z,3.70
2023-04-12T04:56:03.744Z,3.78
2023-04-12T04:58:42.096Z,3.80
2023-04-12T05:01:17.169Z,3.80
2023-04-12T05:03:52.201Z,3.90
2023-04-12T05:06:28.595Z,3.90
2023-04-12T05:09:05.582Z,3.90
2023-04-12T05:11:42.079Z,4.00
2023-04-12T05:14:18.070Z,4.00
2023-04-12T05:16:52.525Z,4.06
2023-04-12T05:19:26.734Z,4.10
2023-04-12T05:22:00.941Z,4.20
2023-04-12T05:24:35.308Z,4.20
2023-04-12T05:27:09.489Z,4.30
2023-04-12T05:29:43.731Z,4.30
2023-04-12T05:32:18.123Z,4.40
2023-04-12T05:34:52.324Z,4.46
2023-04-12T05:37:28.163Z,4.50
2023-04-12T05:40:02.480Z,4.60
2023-04-12T05:42:37.122Z,4.70
2023-04-12T05:45:13.395Z,4.80
2023-04-12T05:47:49.371Z,4.80
2023-04-12T05:50:24.142Z,4.90
2023-04-12T05:52:59.866Z,5.00
2023-04-12T05:55:38.181Z,5.10
2023-04-12T05:58:15.868Z,5.20
2023-04-12T06:00:51.522Z,5.30
2023-04-12T06:03:26.782Z,5.40
2023-04-12T06:06:06.831Z,5.50
2023-04-12T06:08:41.636Z,5.60
2023-04-12T06:11:16.399Z,5.70
2023-04-12T06:13:51.353Z,5.80
2023-04-12T06:16:25.810Z,5.90
2023-04-12T06:19:00.203Z,5.98
2023-04-12T06:21:35.405Z,6.00
2023-04-12T06:24:11.539Z,6.10
2023-04-12T06:26:47.095Z,6.20
2023-04-12T06:29:21.421Z,6.30
2023-04-12T06:31:55.841Z,6.40
2023-04-12T06:34:30.824Z,6.50
2023-04-12T06:37:09.597Z,6.60
2023-04-12T06:39:46.339Z,6.80
2023-04-12T06:42:21.158Z,6.86
2023-04-12T06:44:55.472Z,6.90
2023-04-12T06:47:31.801Z,7.00
2023-04-12T06:50:07.135Z,7.10
2023-04-12T06:52:41.423Z,7.20
2023-04-12T06:55:16.426Z,7.30
2023-04-12T06:57:52.852Z,7.40
2023-04-12T07:00:28.236Z,7.50
2023-04-12T07:03:03.052Z,7.60
2023-04-12T07:05:41.452Z,7.70
2023-04-12T07:08:23.602Z,7.80
2023-04-12T07:11:20.179Z,7.90
2023-04-12T07:13:56.359Z,8.00
2023-04-12T07:16:32.877Z,7.90
2023-04-12T07:19:07.666Z,7.90
2023-04-12T07:21:41.967Z,8.00
2023-04-12T07:24:16.719Z,8.10
2023-04-12T07:26:53.933Z,8.10
2023-04-12T07:29:28.359Z,8.12
2023-04-12T07:32:05.037Z,8.20
2023-04-12T07:34:39.624Z,8.30
2023-04-12T07:37:14.181Z,8.50
2023-04-12T07:39:48.540Z,8.70
2023-04-12T07:42:23.071Z,8.90
2023-04-12T07:44:57.528Z,9.10
2023-04-12T07:47:33.155Z,9.24
2023-04-12T07:50:09.830Z,9.40
2023-04-12T07:52:45.044Z,9.40
2023-04-12T07:55:21.853Z,9.50
2023-04-12T07:57:56.761Z,9.70
2023-04-12T08:00:34.470Z,9.80
2023-04-12T08:03:21.866Z,9.94
2023-04-12T08:06:09.336Z,10.10
2023-04-12T08:08:45.068Z,10.30
2023-04-12T08:11:19.357Z,10.40
2023-04-12T08:13:53.707Z,10.50
2023-04-12T08:16:28.526Z,10.60
2023-04-12T08:19:03.192Z,10.70
2023-04-12T08:21:39.374Z,10.80
2023-04-12T08:24:14.047Z,11.00
2023-04-12T08:26:48.714Z,10.90
2023-04-12T08:29:23.158Z,11.10
2023-04-12T08:32:01.043Z,11.42
2023-04-12T08:34:35.768Z,11.70
2023-04-12T08:37:15.257Z,11.70
2023-04-12T08:39:49.952Z,11.80
2023-04-12T08:42:25.322Z,11.70
2023-04-12T08:45:00.018Z,11.60
2023-04-12T08:47:36.177Z,11.50
2023-04-12T08:50:14.454Z,11.50
2023-04-12T08:52:52.085Z,11.40
2023-04-12T08:55:28.594Z,11.38
2023-04-12T08:58:07.912Z,11.26
2023-04-12T09:00:45.746Z,11.20
2023-04-12T09:03:20.376Z,11.30
2023-04-12T09:05:55.630Z,11.40
2023-04-12T09:08:30.554Z,11.40
2023-04-12T09:11:22.272Z,11.50
2023-04-12T09:13:58.907Z,11.70
2023-04-12T09:16:42.919Z,11.80
2023-04-12T09:19:17.322Z,12.00
2023-04-12T09:21:59.576Z,12.22
2023-04-12T09:24:50.677Z,12.40
2023-04-12T09:27:25.460Z,12.40
2023-04-12T09:30:17.632Z,12.94
2023-04-12T09:32:54.633Z,13.66
2023-04-12T09:35:40.036Z,14.22
2023-04-12T09:38:15.741Z,14.90
2023-04-12T09:40:50.337Z,15.88
2023-04-12T09:43:39.266Z,16.30
2023-04-12T09:46:17.647Z,16.40
2023-04-12T09:48:58.971Z,16.40
2023-04-12T09:51:36.930Z,16.40
2023-04-12T09:54:12.407Z,16.60
2023-04-12T09:56:48.852Z,16.60
2023-04-12T09:59:28.349Z,16.40
2023-04-12T10:02:06.331Z,16.18
2023-04-12T10:04:43.475Z,15.86
2023-04-12T10:07:18.927Z,15.52
2023-04-12T10:09:54.268Z,15.30
2023-04-12T10:12:32.336Z,15.20
2023-04-12T10:15:15.754Z,14.82
2023-04-12T10:17:53.365Z,14.84
2023-04-12T10:20:30.068Z,15.00
2023-04-12T10:23:08.010Z,15.36
2023-04-12T10:25:47.469Z,15.90
2023-04-12T10:28:27.908Z,16.42
2023-04-12T10:31:23.415Z,16.70
2023-04-12T10:34:02.465Z,17.10
2023-04-12T10:36:59.041Z,17.40
2023-04-12T10:39:47.488Z,17.64
2023-04-12T10:42:27.860Z,17.90
2023-04-12T10:45:42.747Z,17.90
2023-04-12T10:48:35.593Z,17.90
2023-04-12T10:51:25.557Z,17.98
2023-04-12T10:54:37.197Z,17.36
2023-04-12T10:57:54.116Z,16.80
2023-04-12T11:01:08.318Z,16.50
2023-04-12T11:04:18.140Z,16.16
2023-04-12T11:07:09.779Z,16.66
2023-04-12T11:09:48.756Z,17.50
2023-04-12T11:12:33.873Z,18.48
2023-04-12T11:15:15.246Z,19.10
2023-04-12T11:18:02.291Z,19.50
2023-04-12T11:20:40.714Z,19.50
2023-04-12T11:23:16.227Z,19.12
2023-04-12T11:25:55.040Z,18.76
2023-04-12T11:28:31.846Z,19.06
2023-04-12T11:31:09.779Z,19.36
2023-04-12T11:33:44.933Z,19.70
2023-04-12T11:36:20.580Z,19.60
2023-04-12T11:38:57.248Z,19.52
2023-04-12T11:41:32.351Z,19.40
2023-04-12T12:00:42.684Z,20.20
2023-04-12T12:03:19.372Z,20.00
2023-04-12T12:05:56.636Z,19.60
2023-04-12T12:08:31.808Z,19.10
2023-04-12T12:11:08.776Z,19.42
2023-04-12T12:13:55.516Z,19.80
2023-04-12T12:16:32.968Z,20.00
2023-04-12T12:19:09.710Z,19.94
2023-04-12T12:21:48.143Z,20.02
2023-04-12T12:24:24.046Z,19.70
2023-04-12T12:27:02.377Z,19.60
2023-04-12T12:29:44.408Z,20.18
2023-04-12T12:32:21.780Z,20.98
2023-04-12T12:34:58.496Z,21.20
2023-04-12T12:37:34.225Z,20.90
2023-04-12T12:40:14.881Z,21.14
2023-04-12T12:42:56.427Z,21.70
2023-04-12T12:45:33.294Z,22.24
2023-04-12T12:48:09.045Z,22.38
2023-04-12T12:50:44.397Z,22.24
2023-04-12T12:53:18.832Z,22.00
2023-04-12T12:55:55.741Z,22.12
2023-04-12T12:58:30.613Z,22.50
2023-04-12T13:01:05.732Z,23.16
2023-04-12T13:03:40.291Z,23.40
2023-04-12T13:06:23.445Z,23.68
2023-04-12T13:08:59.731Z,23.70
2023-04-12T13:11:35.984Z,23.60
2023-04-12T13:14:12.914Z,22.78
2023-04-12T13:16:49.386Z,22.46
2023-04-12T13:19:23.730Z,22.56
2023-04-12T13:21:59.178Z,22.80
2023-04-12T13:24:33.354Z,22.24
2023-04-12T13:27:16.175Z,21.22
2023-04-12T13:29:54.138Z,20.60
2023-04-12T13:32:28.596Z,20.96
2023-04-12T13:35:02.990Z,21.40
2023-04-12T13:37:38.216Z,21.60
2023-04-12T13:40:18.947Z,21.32
2023-04-12T13:42:54.759Z,20.82
2023-04-12T13:45:31.725Z,21.42
2023-04-12T13:48:09.081Z,22.18
2023-04-12T13:50:43.697Z,22.84
2023-04-12T13:53:18.236Z,23.38
2023-04-12T13:55:52.622Z,23.64
2023-04-12T13:58:30.458Z,24.08
2023-04-12T14:01:07.831Z,24.36
2023-04-12T14:03:42.589Z,24.40
2023-04-12T14:06:20.352Z,24.28
2023-04-12T14:08:59.928Z,24.94
2023-04-12T14:11:50.937Z,25.26
2023-04-12T14:14:26.297Z,25.60
2023-04-12T14:17:02.228Z,25.80
2023-04-12T14:19:36.602Z,25.92
2023-04-12T14:22:11.239Z,26.00
2023-04-12T14:24:46.412Z,26.08
2023-04-12T14:27:21.230Z,25.90
2023-04-12T14:29:56.070Z,26.34
2023-04-12T14:32:30.683Z,27.08
2023-04-12T14:35:05.544Z,27.54
2023-04-12T14:37:40.718Z,28.00
2023-04-12T14:40:20.027Z,28.00
2023-04-12T14:42:55.112Z,27.90
2023-04-12T14:45:45.679Z,28.06
2023-04-12T14:48:22.282Z,28.12
2023-04-12T14:51:04.279Z,27.92
2023-04-12T14:53:39.473Z,28.00
2023-04-12T14:56:28.392Z,28.28
2023-04-12T14:59:05.196Z,28.60
2023-04-12T15:01:41.667Z,28.54
2023-04-12T15:04:16.447Z,28.40
2023-04-12T15:06:52.464Z,28.06
2023-04-12T15:09:27.729Z,28.36
2023-04-12T15:12:02.217Z,28.80
2023-04-12T15:14:36.479Z,29.06
2023-04-12T15:17:10.836Z,29.50
2023-04-12T15:19:45.251Z,29.94
2023-04-12T15:22:19.512Z,30.38
2023-04-12T15:24:54.244Z,30.44
2023-04-12T15:27:30.770Z,30.76
2023-04-12T15:30:08.431Z,30.26
2023-04-12T15:32:43.373Z,30.30
2023-04-12T15:35:26.036Z,30.04
2023-04-12T15:38:01.489Z,30.24
2023-04-12T15:40:36.633Z,30.30
2023-04-12T15:43:13.012Z,30.20
2023-04-12T15:45:52.993Z,30.58
2023-04-12T15:48:29.600Z,30.70
2023-04-12T15:51:05.454Z,30.70
2023-04-12T15:53:42.497Z,30.42
2023-04-12T15:56:20.172Z,30.40
2023-04-12T15:58:56.206Z,30.20
2023-04-12T16:01:30.733Z,30.10
2023-04-12T16:04:07.253Z,30.16
2023-04-12T16:06:41.904Z,30.26
2023-04-12T16:09:16.890Z,30.24
2023-04-12T16:11:51.598Z,30.00
2023-04-12T16:14:25.821Z,29.70
2023-04-12T16:17:00.199Z,29.46
2023-04-12T16:19:34.658Z,29.30
2023-04-12T16:22:09.277Z,29.36
2023-04-12T16:24:44.171Z,28.82
2023-04-12T16:27:19.049Z,28.68
2023-04-12T16:29:54.434Z,28.60
2023-04-12T16:32:29.063Z,28.60
2023-04-12T16:35:04.720Z,28.60
2023-04-12T16:37:39.702Z,28.60
2023-04-12T16:40:17.012Z,28.40
2023-04-12T16:42:51.725Z,27.88
2023-04-12T16:45:26.584Z,27.40
2023-04-12T16:48:01.270Z,26.32
2023-04-12T16:50:36.033Z,24.82
2023-04-12T16:53:10.887Z,23.30
2023-04-12T16:55:48.982Z,21.98
2023-04-12T16:58:24.111Z,20.96
2023-04-12T17:00:58.916Z,20.04
2023-04-12T17:03:33.588Z,19.30
2023-04-12T17:06:09.171Z,18.60
2023-04-12T17:08:44.141Z,18.20
2023-04-12T17:11:19.024Z,17.80
2023-04-12T17:13:53.965Z,17.60
2023-04-12T17:16:28.363Z,17.24
2023-04-12T17:19:04.997Z,16.82
2023-04-12T17:21:45.123Z,16.40
2023-04-12T17:24:19.327Z,16.00
2023-04-12T17:26:53.954Z,15.60
2023-04-12T17:29:29.229Z,15.26
2023-04-12T17:32:04.399Z,14.90
2023-04-12T17:34:42.521Z,14.50
2023-04-12T17:37:17.018Z,14.16
2023-04-12T17:39:53.282Z,13.84
2023-04-12T17:42:27.760Z,13.60
2023-04-12T17:45:02.210Z,13.30
2023-04-12T17:47:37.621Z,13.10
2023-04-12T17:50:14.273Z,12.90
2023-04-12T17:52:49.154Z,12.70
2023-04-12T17:55:25.917Z,12.56
2023-04-12T17:58:00.396Z,12.40
2023-04-12T18:00:34.662Z,12.20
2023-04-12T18:03:11.474Z,12.00
2023-04-12T18:05:46.205Z,11.90
2023-04-12T18:08:22.210Z,11.70
2023-04-12T18:10:57.749Z,11.60
2023-04-12T18:13:32.370Z,11.48
2023-04-12T18:16:08.083Z,11.30
2023-04-12T18:18:44.370Z,11.20
2023-04-12T18:21:21.539Z,11.10
2023-04-12T18:23:57.027Z,11.00
2023-04-12T18:26:31.955Z,10.90
2023-04-12T18:29:06.666Z,10.90
2023-04-12T18:31:42.444Z,10.80
2023-04-12T18:34:19.013Z,10.72
2023-04-12T18:36:53.773Z,10.70
2023-04-12T18:39:28.357Z,10.60
2023-04-12T18:42:02.723Z,10.50
2023-04-12T18:44:37.862Z,10.50
2023-04-12T18:47:12.387Z,10.40
2023-04-12T18:49:46.924Z,10.40
2023-04-12T18:52:21.166Z,10.30
2023-04-12T18:54:55.990Z,10.30
2023-04-12T18:57:31.481Z,10.20
2023-04-12T19:00:10.663Z,10.20
2023-04-12T19:02:44.988Z,10.10
2023-04-12T19:05:21.809Z,10.00
2023-04-12T19:07:56.742Z,10.00
2023-04-12T19:10:32.110Z,10.00
2023-04-12T19:13:06.695Z,9.98
2023-04-12T19:15:43.215Z,9.90
2023-04-12T19:18:17.776Z,9.90
2023-04-12T19:20:53.341Z,9.90
2023-04-12T19:23:29.235Z,9.84
2023-04-12T19:26:06.310Z,9.80
2023-04-12T19:28:44.236Z,9.80
2023-04-12T19:31:21.257Z,9.82
2023-04-12T19:33:59.402Z,9.84
2023-04-12T19:36:36.232Z,9.90
2023-04-12T19:39:14.232Z,9.90
2023-04-12T19:41:50.233Z,9.90
2023-04-12T19:44:26.510Z,9.90
2023-04-12T19:47:02.326Z,9.90
2023-04-12T19:49:39.224Z,10.00
2023-04-12T19:52:16.268Z,10.00
2023-04-12T19:54:57.293Z,10.00
2023-04-12T19:57:32.968Z,10.00
2023-04-12T20:00:13.254Z,10.00
2023-04-12T20:02:51.264Z,10.00
2023-04-12T20:05:27.651Z,10.10
2023-04-12T20:08:04.243Z,10.10
2023-04-12T20:10:41.247Z,10.10
2023-04-12T20:13:17.291Z,10.10
2023-04-12T20:15:55.225Z,10.10
2023-04-12T20:18:32.262Z,10.10
2023-04-12T20:21:10.258Z,10.10
2023-04-12T20:32:27.922Z,10.20
2023-04-12T20:34:58.471Z,10.20
2023-04-12T20:37:29.133Z,10.26
2023-04-12T20:39:59.650Z,10.30
2023-04-12T20:42:29.939Z,10.26
2023-04-12T20:45:00.338Z,10.20
2023-04-12T20:47:30.583Z,10.20
2023-04-12T20:50:00.677Z,10.20
2023-04-12T20:52:30.781Z,10.20
2023-04-12T20:55:00.898Z,10.14
2023-04-12T20:57:31.084Z,10.10
2023-04-12T21:00:01.262Z,10.10
2023-04-12T21:02:31.600Z,10.06
2023-04-12T21:05:02.795Z,10.00
2023-04-12T21:07:34.332Z,10.00
2023-04-12T21:10:05.432Z,10.00
2023-04-12T21:12:35.578Z,9.90
2023-04-12T21:15:08.726Z,9.90
2023-04-12T21:17:39.852Z,9.88
2023-04-12T21:20:13.105Z,9.84
2023-04-12T21:22:46.467Z,9.80
2023-04-12T21:25:18.287Z,9.80
2023-04-12T21:27:49.283Z,9.80
2023-04-12T21:30:19.926Z,9.80
2023-04-12T21:32:51.227Z,9.76
2023-04-12T21:35:22.515Z,9.70
2023-04-12T21:37:53.247Z,9.70
2023-04-12T21:40:24.611Z,9.66
2023-04-12T21:42:54.842Z,9.60
2023-04-12T21:45:26.810Z,9.60
2023-04-12T21:47:56.814Z,9.60
2023-04-12T21:50:26.889Z,9.50
2023-04-12T21:52:56.975Z,9.50
2023-04-12T21:55:28.533Z,9.40
2023-04-12T21:57:58.648Z,9.40
2023-04-12T22:00:29.496Z,9.30
2023-04-12T22:03:00.411Z,9.30
2023-04-12T22:05:30.789Z,9.20
2023-04-12T22:08:00.919Z,9.18
2023-04-12T22:10:33.709Z,9.10
2023-04-12T22:13:04.055Z,9.10
2023-04-12T22:15:34.603Z,9.10
2023-04-12T22:18:05.473Z,9.08
2023-04-12T22:20:36.231Z,9.00
2023-04-12T22:23:06.813Z,9.00
2023-04-12T22:25:37.335Z,9.00
2023-04-12T22:28:09.719Z,9.00
2023-04-12T22:30:40.667Z,9.00
2023-04-12T22:33:13.112Z,9.00
2023-04-12T22:35:43.478Z,9.00
2023-04-12T22:38:14.270Z,9.00
2023-04-12T22:40:46.150Z,9.00
2023-04-12T22:43:17.776Z,9.00
2023-04-12T22:45:47.979Z,8.98
2023-04-12T22:48:19.557Z,9.00
2023-04-12T22:50:49.603Z,9.00
2023-04-12T22:53:19.933Z,9.10
2023-04-12T22:55:52.775Z,9.10
2023-04-12T22:58:23.223Z,9.10
2023-04-12T23:00:53.601Z,9.10
2023-04-12T23:03:23.857Z,9.20
2023-04-12T23:05:54.588Z,9.20
2023-04-12T23:08:25.123Z,9.20
2023-04-12T23:11:01.576Z,9.22
2023-04-12T23:13:33.773Z,9.30
2023-04-12T23:16:04.869Z,9.30
2023-04-12T23:18:35.449Z,9.30
2023-04-12T23:21:06.666Z,9.30
2023-04-12T23:23:36.764Z,9.30
2023-04-12T23:26:07.459Z,9.30
2023-04-12T23:28:39.693Z,9.30
2023-04-12T23:31:10.069Z,9.30
2023-04-12T23:33:42.646Z,9.30
2023-04-12T23:36:13.870Z,9.32
2023-04-12T23:38:44.082Z,9.36
2023-04-12T23:41:14.196Z,9.34
2023-04-12T23:43:44.319Z,9.38
2023-04-12T23:46:14.536Z,9.34
2023-04-12T23:48:44.618Z,9.34
2023-04-12T23:51:15.591Z,9.40
2023-04-12T23:53:45.700Z,9.38
2023-04-12T23:56:15.821Z,9.40
2023-04-12T23:58:46.576Z,9.40
